EPLL

Łódź Władysław Reymont Airport

Łódź, Poland
METAR EPLL 250030Z 26004KT 8000 NSC 09/08 Q1012
Observed Flight Rules
Apr-25 @ 00:30 UTC (25 minutes ago) Marginal Visual Flight Rules
Wind Visibility Clouds
260° at 4 knots 7,998 meters
  • Clear skies
Temperatures Readings
Current 9°C / 48°F
Dewpoint 8°C / 46°F
Humidity 94%
Altimeter 29.88" Hg
Pressure 1012 hPa
Elevation 184
METAR EPLL 250030Z 26004KT 8000 NSC 09/08 Q1012
Observed Flight Rules
Apr-25 @ 00:30 UTC
(25 minutes ago)
MVFR
Wind Visibility
260° at 4 knots 7,998 meters
Clouds
  • Clear skies
Temperature Dewpoint
9°C / 48°F 8°C / 46°F
Humidity Altimeter Pressure
94% 29.88" Hg 1012 hPa